sensor_id;sensor_type;location;lat;lon;timestamp;P1;durP1;ratioP1;P2;durP2;ratioP2
19645;SDS011;9971;52.446;13.452;2023-07-31T00:02:04;0.10;;;0.10;;
19645;SDS011;9971;52.446;13.452;2023-07-31T00:07:06;0.10;;;0.10;;
19645;SDS011;9971;52.446;13.452;2023-07-31T00:12:09;0.10;;;0.10;;
19645;SDS011;9971;52.446;13.452;2023-07-31T00:17:11;0.08;;;0.08;;
19645;SDS011;9971;52.446;13.452;2023-07-31T00:22:13;0.10;;;0.10;;
19645;SDS011;9971;52.446;13.452;2023-07-31T00:27:16;0.20;;;0.20;;
19645;SDS011;9971;52.446;13.452;2023-07-31T00:32:19;0.00;;;0.00;;
19645;SDS011;9971;52.446;13.452;2023-07-31T00:37:21;0.10;;;0.10;;
19645;SDS011;9971;52.446;13.452;2023-07-31T00:42:24;0.10;;;0.00;;
19645;SDS011;9971;52.446;13.452;2023-07-31T00:47:27;0.00;;;0.00;;
19645;SDS011;9971;52.446;13.452;2023-07-31T00:52:29;0.10;;;0.10;;
19645;SDS011;9971;52.446;13.452;2023-07-31T00:57:32;0.20;;;0.15;;
19645;SDS011;9971;52.446;13.452;2023-07-31T01:02:33;0.00;;;0.00;;
19645;SDS011;9971;52.446;13.452;2023-07-31T01:07:42;0.28;;;0.03;;
19645;SDS011;9971;52.446;13.452;2023-07-31T01:12:45;0.10;;;0.10;;
19645;SDS011;9971;52.446;13.452;2023-07-31T01:17:46;0.10;;;0.10;;
19645;SDS011;9971;52.446;13.452;2023-07-31T01:22:54;0.28;;;0.10;;
19645;SDS011;9971;52.446;13.452;2023-07-31T01:27:53;0.10;;;0.10;;
19645;SDS011;9971;52.446;13.452;2023-07-31T01:32:53;0.00;;;0.00;;
19645;SDS011;9971;52.446;13.452;2023-07-31T01:37:55;0.20;;;0.20;;
19645;SDS011;9971;52.446;13.452;2023-07-31T01:42:58;0.00;;;0.00;;
19645;SDS011;9971;52.446;13.452;2023-07-31T01:48:00;0.00;;;0.00;;
19645;SDS011;9971;52.446;13.452;2023-07-31T01:53:03;0.05;;;0.05;;
19645;SDS011;9971;52.446;13.452;2023-07-31T01:58:06;0.08;;;0.08;;
19645;SDS011;9971;52.446;13.452;2023-07-31T02:03:09;0.00;;;0.00;;
19645;SDS011;9971;52.446;13.452;2023-07-31T02:08:12;0.00;;;0.00;;
19645;SDS011;9971;52.446;13.452;2023-07-31T02:13:14;0.00;;;0.00;;
19645;SDS011;9971;52.446;13.452;2023-07-31T02:18:16;0.00;;;0.00;;
19645;SDS011;9971;52.446;13.452;2023-07-31T02:23:18;0.13;;;0.13;;
19645;SDS011;9971;52.446;13.452;2023-07-31T02:28:21;0.10;;;0.10;;
19645;SDS011;9971;52.446;13.452;2023-07-31T02:33:24;0.10;;;0.10;;
19645;SDS011;9971;52.446;13.452;2023-07-31T02:38:26;0.10;;;0.10;;
19645;SDS011;9971;52.446;13.452;2023-07-31T02:43:29;0.08;;;0.08;;
19645;SDS011;9971;52.446;13.452;2023-07-31T02:48:31;0.20;;;0.20;;
19645;SDS011;9971;52.446;13.452;2023-07-31T02:53:34;0.30;;;0.05;;
19645;SDS011;9971;52.446;13.452;2023-07-31T02:58:36;0.08;;;0.08;;
19645;SDS011;9971;52.446;13.452;2023-07-31T03:03:40;0.10;;;0.10;;
19645;SDS011;9971;52.446;13.452;2023-07-31T03:08:44;0.10;;;0.10;;
19645;SDS011;9971;52.446;13.452;2023-07-31T03:13:46;0.10;;;0.10;;
19645;SDS011;9971;52.446;13.452;2023-07-31T03:18:48;0.10;;;0.10;;
19645;SDS011;9971;52.446;13.452;2023-07-31T03:23:51;0.13;;;0.10;;
19645;SDS011;9971;52.446;13.452;2023-07-31T03:28:54;0.17;;;0.10;;
19645;SDS011;9971;52.446;13.452;2023-07-31T03:33:56;0.10;;;0.10;;
19645;SDS011;9971;52.446;13.452;2023-07-31T03:38:58;0.10;;;0.10;;
19645;SDS011;9971;52.446;13.452;2023-07-31T03:44:01;0.20;;;0.13;;
19645;SDS011;9971;52.446;13.452;2023-07-31T03:49:03;0.10;;;0.10;;
19645;SDS011;9971;52.446;13.452;2023-07-31T03:54:05;0.95;;;0.20;;
19645;SDS011;9971;52.446;13.452;2023-07-31T03:59:08;0.23;;;0.10;;
19645;SDS011;9971;52.446;13.452;2023-07-31T04:04:11;0.00;;;0.00;;
19645;SDS011;9971;52.446;13.452;2023-07-31T04:09:13;0.05;;;0.05;;
19645;SDS011;9971;52.446;13.452;2023-07-31T04:14:16;0.17;;;0.10;;
19645;SDS011;9971;52.446;13.452;2023-07-31T04:19:18;0.20;;;0.20;;
19645;SDS011;9971;52.446;13.452;2023-07-31T04:24:21;0.23;;;0.23;;
19645;SDS011;9971;52.446;13.452;2023-07-31T04:29:26;0.23;;;0.23;;
19645;SDS011;9971;52.446;13.452;2023-07-31T04:34:28;0.20;;;0.15;;
19645;SDS011;9971;52.446;13.452;2023-07-31T04:39:31;0.23;;;0.10;;
19645;SDS011;9971;52.446;13.452;2023-07-31T04:44:37;0.10;;;0.10;;
19645;SDS011;9971;52.446;13.452;2023-07-31T04:49:40;0.20;;;0.20;;
19645;SDS011;9971;52.446;13.452;2023-07-31T04:54:43;0.20;;;0.20;;
19645;SDS011;9971;52.446;13.452;2023-07-31T04:59:45;0.20;;;0.20;;
19645;SDS011;9971;52.446;13.452;2023-07-31T05:04:47;0.00;;;0.00;;
19645;SDS011;9971;52.446;13.452;2023-07-31T05:09:50;0.23;;;0.20;;
19645;SDS011;9971;52.446;13.452;2023-07-31T05:14:52;0.17;;;0.17;;
19645;SDS011;9971;52.446;13.452;2023-07-31T05:19:55;0.10;;;0.10;;
19645;SDS011;9971;52.446;13.452;2023-07-31T05:24:58;0.05;;;0.05;;
19645;SDS011;9971;52.446;13.452;2023-07-31T05:30:00;0.10;;;0.10;;
19645;SDS011;9971;52.446;13.452;2023-07-31T05:35:05;0.13;;;0.13;;
19645;SDS011;9971;52.446;13.452;2023-07-31T05:40:08;0.10;;;0.10;;
19645;SDS011;9971;52.446;13.452;2023-07-31T05:45:11;0.03;;;0.03;;
19645;SDS011;9971;52.446;13.452;2023-07-31T05:50:13;0.10;;;0.10;;
19645;SDS011;9971;52.446;13.452;2023-07-31T05:55:16;0.00;;;0.00;;
19645;SDS011;9971;52.446;13.452;2023-07-31T06:00:19;0.10;;;0.10;;
19645;SDS011;9971;52.446;13.452;2023-07-31T06:05:21;0.07;;;0.07;;
19645;SDS011;9971;52.446;13.452;2023-07-31T06:10:24;0.10;;;0.08;;
19645;SDS011;9971;52.446;13.452;2023-07-31T06:15:26;0.30;;;0.10;;
19645;SDS011;9971;52.446;13.452;2023-07-31T06:20:29;0.10;;;0.08;;
19645;SDS011;9971;52.446;13.452;2023-07-31T06:25:33;0.00;;;0.00;;
19645;SDS011;9971;52.446;13.452;2023-07-31T06:30:36;0.13;;;0.13;;
19645;SDS011;9971;52.446;13.452;2023-07-31T06:35:38;0.10;;;0.10;;
19645;SDS011;9971;52.446;13.452;2023-07-31T06:40:41;1.57;;;0.33;;
19645;SDS011;9971;52.446;13.452;2023-07-31T06:45:43;0.30;;;0.20;;
19645;SDS011;9971;52.446;13.452;2023-07-31T06:50:46;0.47;;;0.03;;
19645;SDS011;9971;52.446;13.452;2023-07-31T06:55:49;0.20;;;0.20;;
19645;SDS011;9971;52.446;13.452;2023-07-31T07:00:52;0.00;;;0.00;;
19645;SDS011;9971;52.446;13.452;2023-07-31T07:05:54;0.13;;;0.13;;
19645;SDS011;9971;52.446;13.452;2023-07-31T07:10:57;0.00;;;0.00;;
19645;SDS011;9971;52.446;13.452;2023-07-31T07:16:00;0.17;;;0.17;;
19645;SDS011;9971;52.446;13.452;2023-07-31T07:21:02;2.33;;;1.10;;
19645;SDS011;9971;52.446;13.452;2023-07-31T07:26:05;1.15;;;0.75;;
19645;SDS011;9971;52.446;13.452;2023-07-31T07:31:07;0.00;;;0.00;;
19645;SDS011;9971;52.446;13.452;2023-07-31T07:36:11;0.10;;;0.10;;
19645;SDS011;9971;52.446;13.452;2023-07-31T07:41:14;1.27;;;0.10;;
19645;SDS011;9971;52.446;13.452;2023-07-31T07:46:16;0.00;;;0.00;;
19645;SDS011;9971;52.446;13.452;2023-07-31T07:51:19;0.00;;;0.00;;
19645;SDS011;9971;52.446;13.452;2023-07-31T07:56:21;0.10;;;0.10;;
19645;SDS011;9971;52.446;13.452;2023-07-31T08:01:24;0.70;;;0.70;;
19645;SDS011;9971;52.446;13.452;2023-07-31T08:06:29;2.67;;;1.82;;
19645;SDS011;9971;52.446;13.452;2023-07-31T08:11:32;3.02;;;1.50;;
19645;SDS011;9971;52.446;13.452;2023-07-31T08:16:34;2.50;;;1.63;;
19645;SDS011;9971;52.446;13.452;2023-07-31T08:21:36;2.02;;;1.80;;
19645;SDS011;9971;52.446;13.452;2023-07-31T08:26:39;1.90;;;1.80;;
19645;SDS011;9971;52.446;13.452;2023-07-31T08:31:41;2.03;;;1.83;;
19645;SDS011;9971;52.446;13.452;2023-07-31T08:36:43;2.42;;;2.22;;
19645;SDS011;9971;52.446;13.452;2023-07-31T08:41:47;2.08;;;1.87;;
19645;SDS011;9971;52.446;13.452;2023-07-31T08:46:48;3.80;;;2.13;;
19645;SDS011;9971;52.446;13.452;2023-07-31T08:51:50;2.93;;;2.13;;
19645;SDS011;9971;52.446;13.452;2023-07-31T08:56:52;2.30;;;2.10;;
19645;SDS011;9971;52.446;13.452;2023-07-31T09:01:54;2.07;;;1.90;;
19645;SDS011;9971;52.446;13.452;2023-07-31T09:06:57;2.15;;;1.80;;
19645;SDS011;9971;52.446;13.452;2023-07-31T09:11:59;1.77;;;1.62;;
19645;SDS011;9971;52.446;13.452;2023-07-31T09:17:01;1.50;;;1.40;;
19645;SDS011;9971;52.446;13.452;2023-07-31T09:22:04;1.40;;;1.15;;
19645;SDS011;9971;52.446;13.452;2023-07-31T09:27:06;1.67;;;1.10;;
19645;SDS011;9971;52.446;13.452;2023-07-31T09:32:15;1.10;;;1.02;;
19645;SDS011;9971;52.446;13.452;2023-07-31T09:37:11;0.98;;;0.93;;
19645;SDS011;9971;52.446;13.452;2023-07-31T09:42:24;1.45;;;1.10;;
19645;SDS011;9971;52.446;13.452;2023-07-31T09:47:31;1.23;;;0.80;;
19645;SDS011;9971;52.446;13.452;2023-07-31T09:52:36;1.07;;;1.07;;
19645;SDS011;9971;52.446;13.452;2023-07-31T09:57:38;1.20;;;1.10;;
19645;SDS011;9971;52.446;13.452;2023-07-31T10:02:44;1.60;;;1.50;;
19645;SDS011;9971;52.446;13.452;2023-07-31T10:07:49;1.80;;;1.70;;
19645;SDS011;9971;52.446;13.452;2023-07-31T10:12:50;2.20;;;2.00;;
19645;SDS011;9971;52.446;13.452;2023-07-31T10:17:59;2.75;;;2.22;;
19645;SDS011;9971;52.446;13.452;2023-07-31T10:23:07;2.20;;;1.97;;
19645;SDS011;9971;52.446;13.452;2023-07-31T10:28:10;2.17;;;1.90;;
19645;SDS011;9971;52.446;13.452;2023-07-31T10:33:13;3.27;;;2.57;;
19645;SDS011;9971;52.446;13.452;2023-07-31T10:38:15;3.80;;;2.37;;
19645;SDS011;9971;52.446;13.452;2023-07-31T10:43:23;3.80;;;2.20;;
19645;SDS011;9971;52.446;13.452;2023-07-31T10:48:26;4.20;;;2.73;;
19645;SDS011;9971;52.446;13.452;2023-07-31T10:53:31;2.77;;;2.50;;
19645;SDS011;9971;52.446;13.452;2023-07-31T10:58:36;4.20;;;2.33;;
19645;SDS011;9971;52.446;13.452;2023-07-31T11:03:56;2.90;;;2.15;;
19645;SDS011;9971;52.446;13.452;2023-07-31T11:08:59;2.73;;;2.03;;
19645;SDS011;9971;52.446;13.452;2023-07-31T11:19:32;2.97;;;2.13;;
19645;SDS011;9971;52.446;13.452;2023-07-31T11:24:34;2.98;;;2.12;;
19645;SDS011;9971;52.446;13.452;2023-07-31T11:29:37;2.70;;;2.50;;
19645;SDS011;9971;52.446;13.452;2023-07-31T11:40:01;3.37;;;2.10;;
19645;SDS011;9971;52.446;13.452;2023-07-31T11:45:07;3.23;;;2.63;;
19645;SDS011;9971;52.446;13.452;2023-07-31T11:50:13;2.12;;;1.92;;
19645;SDS011;9971;52.446;13.452;2023-07-31T11:55:27;2.70;;;2.10;;
19645;SDS011;9971;52.446;13.452;2023-07-31T12:00:31;3.53;;;2.00;;
19645;SDS011;9971;52.446;13.452;2023-07-31T12:05:34;3.10;;;1.90;;
19645;SDS011;9971;52.446;13.452;2023-07-31T12:10:38;1.90;;;1.73;;
19645;SDS011;9971;52.446;13.452;2023-07-31T12:15:41;3.03;;;2.13;;
19645;SDS011;9971;52.446;13.452;2023-07-31T12:20:45;2.62;;;2.33;;
19645;SDS011;9971;52.446;13.452;2023-07-31T12:25:54;2.47;;;2.02;;
19645;SDS011;9971;52.446;13.452;2023-07-31T12:30:51;2.50;;;2.00;;
19645;SDS011;9971;52.446;13.452;2023-07-31T12:35:55;2.93;;;1.80;;
19645;SDS011;9971;52.446;13.452;2023-07-31T12:40:57;1.77;;;1.60;;
19645;SDS011;9971;52.446;13.452;2023-07-31T12:46:00;2.20;;;1.55;;
19645;SDS011;9971;52.446;13.452;2023-07-31T12:51:03;1.95;;;1.65;;
19645;SDS011;9971;52.446;13.452;2023-07-31T12:56:05;1.98;;;1.42;;
19645;SDS011;9971;52.446;13.452;2023-07-31T13:01:08;2.70;;;1.62;;
19645;SDS011;9971;52.446;13.452;2023-07-31T13:06:11;2.10;;;1.50;;
19645;SDS011;9971;52.446;13.452;2023-07-31T13:11:13;3.30;;;1.70;;
19645;SDS011;9971;52.446;13.452;2023-07-31T13:16:17;2.42;;;1.47;;
19645;SDS011;9971;52.446;13.452;2023-07-31T13:21:20;2.33;;;1.47;;
19645;SDS011;9971;52.446;13.452;2023-07-31T13:26:23;3.90;;;1.90;;
19645;SDS011;9971;52.446;13.452;2023-07-31T13:31:26;2.02;;;1.87;;
19645;SDS011;9971;52.446;13.452;2023-07-31T13:36:30;3.87;;;2.42;;
19645;SDS011;9971;52.446;13.452;2023-07-31T13:41:33;3.30;;;2.13;;
19645;SDS011;9971;52.446;13.452;2023-07-31T13:46:35;2.47;;;1.62;;
19645;SDS011;9971;52.446;13.452;2023-07-31T13:51:38;2.67;;;1.87;;
19645;SDS011;9971;52.446;13.452;2023-07-31T13:56:42;2.67;;;1.90;;
19645;SDS011;9971;52.446;13.452;2023-07-31T14:01:44;2.93;;;2.17;;
19645;SDS011;9971;52.446;13.452;2023-07-31T14:06:46;2.20;;;2.00;;
19645;SDS011;9971;52.446;13.452;2023-07-31T14:11:49;1.90;;;1.70;;
19645;SDS011;9971;52.446;13.452;2023-07-31T14:16:51;1.90;;;1.80;;
19645;SDS011;9971;52.446;13.452;2023-07-31T14:21:55;2.67;;;2.03;;
19645;SDS011;9971;52.446;13.452;2023-07-31T14:26:57;3.00;;;2.33;;
19645;SDS011;9971;52.446;13.452;2023-07-31T14:32:00;2.98;;;1.80;;
19645;SDS011;9971;52.446;13.452;2023-07-31T14:37:02;2.47;;;1.93;;
19645;SDS011;9971;52.446;13.452;2023-07-31T14:42:06;2.47;;;2.08;;
19645;SDS011;9971;52.446;13.452;2023-07-31T14:47:09;3.37;;;2.13;;
19645;SDS011;9971;52.446;13.452;2023-07-31T14:52:12;2.57;;;1.83;;
19645;SDS011;9971;52.446;13.452;2023-07-31T14:57:14;2.52;;;2.27;;
19645;SDS011;9971;52.446;13.452;2023-07-31T15:02:16;1.98;;;1.87;;
19645;SDS011;9971;52.446;13.452;2023-07-31T15:07:21;1.60;;;1.50;;
19645;SDS011;9971;52.446;13.452;2023-07-31T15:12:25;2.43;;;2.00;;
19645;SDS011;9971;52.446;13.452;2023-07-31T15:17:27;2.83;;;2.20;;
19645;SDS011;9971;52.446;13.452;2023-07-31T15:22:29;2.83;;;2.00;;
19645;SDS011;9971;52.446;13.452;2023-07-31T15:27:32;4.53;;;2.03;;
19645;SDS011;9971;52.446;13.452;2023-07-31T15:32:36;4.37;;;2.10;;
19645;SDS011;9971;52.446;13.452;2023-07-31T15:37:37;1.80;;;1.70;;
19645;SDS011;9971;52.446;13.452;2023-07-31T15:42:40;2.35;;;1.87;;
19645;SDS011;9971;52.446;13.452;2023-07-31T15:47:43;3.17;;;2.03;;
19645;SDS011;9971;52.446;13.452;2023-07-31T15:52:46;1.67;;;1.57;;
19645;SDS011;9971;52.446;13.452;2023-07-31T15:57:49;2.30;;;2.10;;
19645;SDS011;9971;52.446;13.452;2023-07-31T16:02:53;2.27;;;2.07;;
19645;SDS011;9971;52.446;13.452;2023-07-31T16:07:57;1.97;;;1.80;;
19645;SDS011;9971;52.446;13.452;2023-07-31T16:13:00;1.37;;;1.27;;
19645;SDS011;9971;52.446;13.452;2023-07-31T16:18:02;2.12;;;1.90;;
19645;SDS011;9971;52.446;13.452;2023-07-31T16:23:05;2.72;;;1.85;;
19645;SDS011;9971;52.446;13.452;2023-07-31T16:28:08;2.67;;;2.22;;
19645;SDS011;9971;52.446;13.452;2023-07-31T16:33:11;2.40;;;2.22;;
19645;SDS011;9971;52.446;13.452;2023-07-31T16:38:13;2.10;;;1.90;;
19645;SDS011;9971;52.446;13.452;2023-07-31T16:43:17;2.70;;;2.17;;
19645;SDS011;9971;52.446;13.452;2023-07-31T16:48:19;1.90;;;1.80;;
19645;SDS011;9971;52.446;13.452;2023-07-31T16:53:23;3.43;;;1.97;;
19645;SDS011;9971;52.446;13.452;2023-07-31T16:58:25;1.95;;;1.77;;
19645;SDS011;9971;52.446;13.452;2023-07-31T17:03:31;1.90;;;1.50;;
19645;SDS011;9971;52.446;13.452;2023-07-31T17:08:33;2.30;;;1.87;;
19645;SDS011;9971;52.446;13.452;2023-07-31T17:13:36;4.40;;;1.70;;
19645;SDS011;9971;52.446;13.452;2023-07-31T17:18:39;2.17;;;1.17;;
19645;SDS011;9971;52.446;13.452;2023-07-31T17:23:42;2.63;;;2.00;;
19645;SDS011;9971;52.446;13.452;2023-07-31T17:28:46;3.23;;;1.73;;
19645;SDS011;9971;52.446;13.452;2023-07-31T17:33:48;1.62;;;1.52;;
19645;SDS011;9971;52.446;13.452;2023-07-31T17:38:51;2.37;;;1.42;;
19645;SDS011;9971;52.446;13.452;2023-07-31T17:43:54;1.55;;;1.45;;
19645;SDS011;9971;52.446;13.452;2023-07-31T17:48:58;1.37;;;1.23;;
19645;SDS011;9971;52.446;13.452;2023-07-31T17:54:01;1.60;;;1.13;;
19645;SDS011;9971;52.446;13.452;2023-07-31T17:59:04;1.30;;;1.17;;
19645;SDS011;9971;52.446;13.452;2023-07-31T18:04:06;1.50;;;1.40;;
19645;SDS011;9971;52.446;13.452;2023-07-31T18:09:10;1.20;;;1.10;;
19645;SDS011;9971;52.446;13.452;2023-07-31T18:14:12;1.98;;;1.45;;
19645;SDS011;9971;52.446;13.452;2023-07-31T18:19:16;2.80;;;1.55;;
19645;SDS011;9971;52.446;13.452;2023-07-31T18:24:19;2.00;;;1.80;;
19645;SDS011;9971;52.446;13.452;2023-07-31T18:29:23;2.40;;;1.53;;
19645;SDS011;9971;52.446;13.452;2023-07-31T18:34:24;2.50;;;1.30;;
19645;SDS011;9971;52.446;13.452;2023-07-31T18:39:28;1.32;;;1.22;;
19645;SDS011;9971;52.446;13.452;2023-07-31T18:44:32;0.90;;;0.90;;
19645;SDS011;9971;52.446;13.452;2023-07-31T18:49:35;0.65;;;0.65;;
19645;SDS011;9971;52.446;13.452;2023-07-31T18:54:38;1.95;;;1.85;;
19645;SDS011;9971;52.446;13.452;2023-07-31T18:59:42;1.03;;;0.93;;
19645;SDS011;9971;52.446;13.452;2023-07-31T19:04:47;0.57;;;0.57;;
19645;SDS011;9971;52.446;13.452;2023-07-31T19:09:49;1.25;;;1.15;;
19645;SDS011;9971;52.446;13.452;2023-07-31T19:14:52;1.00;;;0.90;;
19645;SDS011;9971;52.446;13.452;2023-07-31T19:19:55;0.70;;;0.70;;
19645;SDS011;9971;52.446;13.452;2023-07-31T19:24:58;1.83;;;1.57;;
19645;SDS011;9971;52.446;13.452;2023-07-31T19:30:00;0.20;;;0.20;;
19645;SDS011;9971;52.446;13.452;2023-07-31T19:35:04;0.13;;;0.13;;
19645;SDS011;9971;52.446;13.452;2023-07-31T19:40:08;0.20;;;0.20;;
19645;SDS011;9971;52.446;13.452;2023-07-31T19:45:12;1.30;;;1.20;;
19645;SDS011;9971;52.446;13.452;2023-07-31T19:50:14;0.10;;;0.10;;
19645;SDS011;9971;52.446;13.452;2023-07-31T19:55:18;0.20;;;0.20;;
19645;SDS011;9971;52.446;13.452;2023-07-31T20:00:22;1.80;;;1.57;;
19645;SDS011;9971;52.446;13.452;2023-07-31T20:05:25;0.53;;;0.43;;
19645;SDS011;9971;52.446;13.452;2023-07-31T20:10:29;1.00;;;0.60;;
19645;SDS011;9971;52.446;13.452;2023-07-31T20:15:34;0.37;;;0.37;;
19645;SDS011;9971;52.446;13.452;2023-07-31T20:20:37;0.10;;;0.10;;
19645;SDS011;9971;52.446;13.452;2023-07-31T20:25:40;1.43;;;0.50;;
19645;SDS011;9971;52.446;13.452;2023-07-31T20:30:43;0.40;;;0.40;;
19645;SDS011;9971;52.446;13.452;2023-07-31T20:35:46;0.20;;;0.20;;
19645;SDS011;9971;52.446;13.452;2023-07-31T20:40:49;0.20;;;0.20;;
19645;SDS011;9971;52.446;13.452;2023-07-31T20:45:51;0.15;;;0.15;;
19645;SDS011;9971;52.446;13.452;2023-07-31T20:50:53;0.20;;;0.20;;
19645;SDS011;9971;52.446;13.452;2023-07-31T20:55:56;0.30;;;0.30;;
19645;SDS011;9971;52.446;13.452;2023-07-31T21:01:00;0.30;;;0.30;;
19645;SDS011;9971;52.446;13.452;2023-07-31T21:06:03;0.33;;;0.33;;
19645;SDS011;9971;52.446;13.452;2023-07-31T21:11:07;0.43;;;0.43;;
19645;SDS011;9971;52.446;13.452;2023-07-31T21:16:10;0.23;;;0.20;;
19645;SDS011;9971;52.446;13.452;2023-07-31T21:21:12;0.40;;;0.40;;
19645;SDS011;9971;52.446;13.452;2023-07-31T21:26:15;0.35;;;0.35;;
19645;SDS011;9971;52.446;13.452;2023-07-31T21:31:17;0.55;;;0.55;;
19645;SDS011;9971;52.446;13.452;2023-07-31T21:36:20;0.40;;;0.40;;
19645;SDS011;9971;52.446;13.452;2023-07-31T21:41:25;0.80;;;0.80;;
19645;SDS011;9971;52.446;13.452;2023-07-31T21:46:28;0.60;;;0.60;;
19645;SDS011;9971;52.446;13.452;2023-07-31T21:51:32;0.78;;;0.78;;
19645;SDS011;9971;52.446;13.452;2023-07-31T21:56:34;0.80;;;0.80;;
19645;SDS011;9971;52.446;13.452;2023-07-31T22:01:37;0.60;;;0.60;;
19645;SDS011;9971;52.446;13.452;2023-07-31T22:06:39;1.22;;;1.12;;
19645;SDS011;9971;52.446;13.452;2023-07-31T22:11:41;1.07;;;1.07;;
19645;SDS011;9971;52.446;13.452;2023-07-31T22:16:45;1.77;;;1.67;;
19645;SDS011;9971;52.446;13.452;2023-07-31T22:21:48;1.75;;;1.65;;
19645;SDS011;9971;52.446;13.452;2023-07-31T22:26:50;1.02;;;1.00;;
19645;SDS011;9971;52.446;13.452;2023-07-31T22:31:52;1.40;;;1.30;;
19645;SDS011;9971;52.446;13.452;2023-07-31T22:36:55;1.00;;;1.00;;
19645;SDS011;9971;52.446;13.452;2023-07-31T22:41:57;1.65;;;1.55;;
19645;SDS011;9971;52.446;13.452;2023-07-31T22:47:00;1.22;;;1.12;;
19645;SDS011;9971;52.446;13.452;2023-07-31T22:52:02;1.82;;;1.72;;
19645;SDS011;9971;52.446;13.452;2023-07-31T22:57:05;0.85;;;0.85;;
19645;SDS011;9971;52.446;13.452;2023-07-31T23:02:08;0.88;;;0.88;;
19645;SDS011;9971;52.446;13.452;2023-07-31T23:07:10;0.70;;;0.70;;
19645;SDS011;9971;52.446;13.452;2023-07-31T23:12:13;1.05;;;1.02;;
19645;SDS011;9971;52.446;13.452;2023-07-31T23:17:16;0.88;;;0.88;;
19645;SDS011;9971;52.446;13.452;2023-07-31T23:22:18;1.80;;;1.70;;
19645;SDS011;9971;52.446;13.452;2023-07-31T23:27:21;1.20;;;1.12;;
19645;SDS011;9971;52.446;13.452;2023-07-31T23:32:23;1.83;;;1.70;;
19645;SDS011;9971;52.446;13.452;2023-07-31T23:37:27;1.50;;;1.40;;
19645;SDS011;9971;52.446;13.452;2023-07-31T23:42:29;2.85;;;2.42;;
19645;SDS011;9971;52.446;13.452;2023-07-31T23:47:32;2.25;;;2.00;;
19645;SDS011;9971;52.446;13.452;2023-07-31T23:52:36;4.10;;;2.98;;
19645;SDS011;9971;52.446;13.452;2023-07-31T23:57:37;0.80;;;0.80;;
